LTDA Airport Information

Runway Information
Runway 04 Length 9843 ft width 148 ft
Elevation 265 ft Threshold 0 ft Heading 42
Runway 22 Length 9843 ft Width 148 ft
Elevation 267 ft Threshold 0 ft Heading 222
Airport Frequencies
Airport Navaids
Airport Weather Information & NOTAM
ADDS - METARS form results

(0117 UTC 25 January 2022)
Data provider http://aviationweather.gov/metar/data/
 
METAR text: LTDA 250050Z 04014KT 9999 SCT035 01/M00 Q1023 NOSIG
Conditions at: LTDA (HATAY AIRPORT , TR) observed 0050 UTC 25 January 2022
Temperature: 1.0°C (34°F)
Dewpoint: 0.0°C (32°F) [RH = 93%]
Pressure (altimeter): 30.21 inches Hg (1023.0 mb)
Winds: from the NE (40 degrees) at 16 MPH (14 knots; 7.2 m/s)
Visibility: 6 or more miles (10+ km)
Ceiling: at least 12,000 feet AGL
Clouds: scattered clouds at 3500 feet AGL
Weather: no significant weather observed at this time

Forecast for: LTDA (HATAY AIRPORT , TR)
Text: TAF LTDA 242240Z 2500/2509 VRB02KT 6000 SCT035
Forecast period: 0000 to 0900 UTC 25 January 2022
Forecast type: FROM: standard forecast or significant change
Winds: variable direction winds at 2 MPH (2 knots; 1.0 m/s)
Visibility: 4 miles (6 km)
Ceiling: at least 12,000 feet AGL
Clouds: scattered clouds at 3500 feet AGL
Weather: no significant weather forecast for this period